createdAt,value
2018-05-08T00:00:19.411Z,5.4
2018-05-08T00:01:21.065Z,7.3
2018-05-08T00:02:22.720Z,9.7
2018-05-08T00:03:24.379Z,7.3
2018-05-08T00:04:26.023Z,6.7
2018-05-08T00:05:27.674Z,5.7
2018-05-08T00:06:29.327Z,6.6
2018-05-08T00:07:30.983Z,8.5
2018-05-08T00:08:32.618Z,7.0
2018-05-08T00:09:34.273Z,6.2
2018-05-08T00:10:35.935Z,9.1
2018-05-08T00:11:37.576Z,6.6
2018-05-08T00:12:39.228Z,12.0
2018-05-08T00:13:40.872Z,6.8
2018-05-08T00:14:42.527Z,5.6
2018-05-08T00:15:44.173Z,11.7
2018-05-08T00:16:45.835Z,7.0
2018-05-08T00:17:47.498Z,8.3
2018-05-08T00:18:49.155Z,8.2
2018-05-08T00:19:50.813Z,7.2
2018-05-08T00:20:52.484Z,12.2
2018-05-08T00:21:54.129Z,8.0
2018-05-08T00:22:55.774Z,7.4
2018-05-08T00:23:57.415Z,8.0
2018-05-08T00:24:59.071Z,9.5
2018-05-08T00:26:00.724Z,7.5
2018-05-08T00:27:02.380Z,7.6
2018-05-08T00:28:04.029Z,8.9
2018-05-08T00:29:05.677Z,10.7
2018-05-08T00:30:07.323Z,8.4
2018-05-08T00:31:08.972Z,7.7
2018-05-08T00:32:10.620Z,13.6
2018-05-08T00:33:12.266Z,8.1
2018-05-08T00:34:13.912Z,9.3
2018-05-08T00:35:15.565Z,6.1
2018-05-08T00:36:17.211Z,7.0
2018-05-08T00:37:18.864Z,9.0
2018-05-08T00:38:20.509Z,7.8
2018-05-08T00:39:22.162Z,8.4
2018-05-08T00:40:23.821Z,8.8
2018-05-08T00:41:25.465Z,8.7
2018-05-08T00:42:27.115Z,10.9
2018-05-08T00:43:28.756Z,9.4
2018-05-08T00:44:30.397Z,9.7
2018-05-08T00:45:32.046Z,8.2
2018-05-08T00:46:33.694Z,8.4
2018-05-08T00:47:35.349Z,7.6
2018-05-08T00:48:36.993Z,9.0
2018-05-08T00:49:38.640Z,10.7
2018-05-08T00:50:40.289Z,8.5
2018-05-08T00:51:41.935Z,7.3
2018-05-08T00:52:43.581Z,8.4
2018-05-08T00:53:45.229Z,7.9
2018-05-08T00:54:46.888Z,9.9
2018-05-08T00:55:48.543Z,10.5
2018-05-08T00:56:50.183Z,10.3
2018-05-08T00:57:51.827Z,7.9
2018-05-08T00:58:53.476Z,6.0
2018-05-08T00:59:55.125Z,8.3
2018-05-08T01:00:56.780Z,11.3
2018-05-08T01:01:58.437Z,9.3
2018-05-08T01:03:00.070Z,8.0
2018-05-08T01:04:01.730Z,11.0
2018-05-08T01:05:03.422Z,6.4
2018-05-08T01:06:04.970Z,6.6
2018-05-08T01:07:06.632Z,8.9
2018-05-08T01:08:08.273Z,8.5
2018-05-08T01:09:09.926Z,11.0
2018-05-08T01:10:11.591Z,8.8
2018-05-08T01:11:13.235Z,9.9
2018-05-08T01:12:14.876Z,9.5
2018-05-08T01:13:16.569Z,6.1
2018-05-08T01:14:18.223Z,11.0
2018-05-08T01:15:19.872Z,12.0
2018-05-08T01:16:21.523Z,6.8
2018-05-08T01:17:23.172Z,15.0
2018-05-08T01:18:24.824Z,13.3
2018-05-08T01:19:26.472Z,9.8
2018-05-08T01:20:28.153Z,13.2
2018-05-08T01:21:29.803Z,9.9
2018-05-08T01:22:31.455Z,6.1
2018-05-08T01:23:33.106Z,9.7
2018-05-08T01:24:34.751Z,11.0
2018-05-08T01:25:36.399Z,8.4
2018-05-08T01:26:38.040Z,11.1
2018-05-08T01:27:39.751Z,7.2
2018-05-08T01:28:41.347Z,10.0
2018-05-08T01:29:42.993Z,11.2
2018-05-08T01:30:44.649Z,8.2
2018-05-08T01:31:46.294Z,9.7
2018-05-08T01:32:47.984Z,7.1
2018-05-08T01:33:49.625Z,9.7
2018-05-08T01:34:51.271Z,8.8
2018-05-08T01:35:52.926Z,10.2
2018-05-08T01:36:54.572Z,9.4
2018-05-08T01:37:56.232Z,8.8
2018-05-08T01:38:57.881Z,8.9
2018-05-08T01:39:59.537Z,10.2
2018-05-08T01:41:01.171Z,16.5
2018-05-08T01:42:02.884Z,8.9
2018-05-08T01:43:04.478Z,10.6
2018-05-08T01:44:06.124Z,9.5
2018-05-08T01:45:07.769Z,8.3
2018-05-08T01:46:09.428Z,7.5
2018-05-08T01:47:11.087Z,9.6
2018-05-08T01:48:12.732Z,10.4
2018-05-08T01:49:14.378Z,10.8
2018-05-08T01:50:16.026Z,11.7
2018-05-08T01:51:17.665Z,8.2
2018-05-08T01:52:19.311Z,9.6
2018-05-08T01:53:20.966Z,8.5
2018-05-08T01:54:22.613Z,8.1
2018-05-08T01:55:24.263Z,8.0
2018-05-08T02:02:05.485Z,8.4
2018-05-08T02:03:07.138Z,8.2
2018-05-08T02:04:08.782Z,9.9
2018-05-08T02:05:10.425Z,9.1
2018-05-08T02:06:12.071Z,8.7
2018-05-08T02:07:13.725Z,8.6
2018-05-08T02:08:15.370Z,11.8
2018-05-08T02:09:17.023Z,9.0
2018-05-08T02:10:18.666Z,9.4
2018-05-08T02:11:20.331Z,13.2
2018-05-08T02:12:21.978Z,10.9
2018-05-08T02:13:23.887Z,9.1
2018-05-08T02:14:25.490Z,10.9
2018-05-08T02:15:27.134Z,9.4
2018-05-08T02:16:28.782Z,9.7
2018-05-08T02:17:30.424Z,10.2
2018-05-08T02:18:32.068Z,7.7
2018-05-08T02:19:33.728Z,9.4
2018-05-08T02:20:35.371Z,13.6
2018-05-08T02:21:37.022Z,9.2
2018-05-08T02:22:38.673Z,8.8
2018-05-08T02:23:40.314Z,11.6
2018-05-08T02:24:41.967Z,10.0
2018-05-08T02:25:43.613Z,8.3
2018-05-08T02:26:45.249Z,7.4
2018-05-08T02:27:46.900Z,9.8
2018-05-08T02:28:48.551Z,11.0
2018-05-08T02:29:50.200Z,17.4
2018-05-08T02:30:51.860Z,8.8
2018-05-08T02:31:53.507Z,9.0
2018-05-08T02:32:55.152Z,8.0
2018-05-08T02:33:56.795Z,8.2
2018-05-08T02:34:58.445Z,7.9
2018-05-08T02:36:00.082Z,11.2
2018-05-08T02:37:01.748Z,9.0
2018-05-08T02:38:03.395Z,10.8
2018-05-08T02:39:05.041Z,9.7
2018-05-08T02:40:06.684Z,9.0
2018-05-08T02:41:08.331Z,7.1
2018-05-08T02:42:09.979Z,7.2
2018-05-08T02:43:11.621Z,11.0
2018-05-08T02:44:13.273Z,10.5
2018-05-08T02:45:14.925Z,10.6
2018-05-08T02:46:16.573Z,9.6
2018-05-08T02:47:18.217Z,9.2
2018-05-08T02:48:19.859Z,7.3
2018-05-08T02:49:21.561Z,8.0
2018-05-08T02:50:23.214Z,8.9
2018-05-08T02:51:24.892Z,9.9
2018-05-08T02:52:26.554Z,9.0
2018-05-08T02:53:28.188Z,8.3
2018-05-08T02:54:29.839Z,8.3
2018-05-08T02:55:31.483Z,8.2
2018-05-08T02:56:33.133Z,11.7
2018-05-08T02:57:34.783Z,14.0
2018-05-08T02:58:36.430Z,7.5
2018-05-08T02:59:38.074Z,9.6
2018-05-08T03:00:39.721Z,10.9
2018-05-08T03:01:41.363Z,10.6
2018-05-08T03:02:43.022Z,9.4
2018-05-08T03:03:44.672Z,9.0
2018-05-08T03:04:46.319Z,9.5
2018-05-08T03:05:48.005Z,12.5
2018-05-08T03:06:49.657Z,10.1
2018-05-08T03:07:51.311Z,11.3
2018-05-08T03:08:52.937Z,10.6
2018-05-08T03:09:54.586Z,10.0
2018-05-08T03:10:56.239Z,15.6
2018-05-08T03:11:57.884Z,10.8
2018-05-08T03:12:59.598Z,11.1
2018-05-08T03:14:01.249Z,9.6
2018-05-08T03:15:02.903Z,8.8
2018-05-08T03:16:04.544Z,11.4
2018-05-08T03:17:06.211Z,8.8
2018-05-08T03:18:07.856Z,10.1
2018-05-08T03:19:09.505Z,11.7
2018-05-08T03:20:11.158Z,16.0
2018-05-08T03:21:12.802Z,12.4
2018-05-08T03:22:14.505Z,9.2
2018-05-08T03:23:16.095Z,10.5
2018-05-08T03:24:17.746Z,8.8
2018-05-08T03:25:19.383Z,9.9
2018-05-08T03:26:21.027Z,9.6
2018-05-08T03:27:22.687Z,9.2
2018-05-08T03:28:24.349Z,9.4
2018-05-08T03:29:25.996Z,9.4
2018-05-08T03:30:27.642Z,11.3
2018-05-08T03:31:29.301Z,9.4
2018-05-08T03:32:30.995Z,11.2
2018-05-08T03:33:32.642Z,8.4
2018-05-08T03:34:34.286Z,9.6
2018-05-08T03:35:35.943Z,15.6
2018-05-08T03:36:37.598Z,11.6
2018-05-08T03:37:39.246Z,9.5
2018-05-08T03:38:40.900Z,11.3
2018-05-08T03:39:42.548Z,12.1
2018-05-08T03:40:44.195Z,11.4
2018-05-08T03:41:45.847Z,11.8
2018-05-08T03:42:47.518Z,12.1
2018-05-08T03:43:49.170Z,15.3
2018-05-08T03:44:50.827Z,8.3
2018-05-08T03:45:52.471Z,14.0
2018-05-08T03:46:54.121Z,13.1
2018-05-08T03:47:55.780Z,11.6
2018-05-08T03:48:57.432Z,12.7
2018-05-08T03:49:59.097Z,8.7
2018-05-08T03:51:00.749Z,10.4
2018-05-08T03:52:02.395Z,13.6
2018-05-08T03:53:04.051Z,14.2
2018-05-08T03:54:05.695Z,10.8
2018-05-08T03:55:07.356Z,11.4
2018-05-08T03:56:09.013Z,10.9
2018-05-08T03:57:10.666Z,8.2
2018-05-08T03:58:12.325Z,12.5
2018-05-08T03:59:13.974Z,11.3
2018-05-08T04:00:15.637Z,11.9
2018-05-08T04:01:17.291Z,11.7
2018-05-08T04:02:18.935Z,10.6
2018-05-08T04:03:20.591Z,11.6
2018-05-08T04:04:22.248Z,9.0
2018-05-08T04:05:23.894Z,11.1
2018-05-08T04:06:25.550Z,10.9
2018-05-08T04:07:27.197Z,8.4
2018-05-08T04:08:28.867Z,12.8
2018-05-08T04:09:30.513Z,8.2
2018-05-08T04:10:32.248Z,11.9
2018-05-08T04:11:33.896Z,10.0
2018-05-08T04:12:35.550Z,12.1
2018-05-08T04:13:37.200Z,12.4
2018-05-08T04:14:38.850Z,12.0
2018-05-08T04:15:40.502Z,9.6
2018-05-08T04:16:42.150Z,9.7
2018-05-08T04:17:43.803Z,8.7
2018-05-08T04:18:45.451Z,12.4
2018-05-08T04:19:47.125Z,9.7
2018-05-08T04:20:48.792Z,10.6
2018-05-08T04:21:50.443Z,11.9
2018-05-08T04:22:52.093Z,10.3
2018-05-08T04:23:53.746Z,12.0
2018-05-08T04:24:55.390Z,12.0
2018-05-08T04:25:57.037Z,12.0
2018-05-08T04:26:58.694Z,11.9
2018-05-08T04:28:00.349Z,12.9
2018-05-08T04:29:01.988Z,9.7
2018-05-08T04:30:03.641Z,8.5
2018-05-08T04:31:05.303Z,16.7
2018-05-08T04:32:06.955Z,11.5
2018-05-08T04:33:08.607Z,9.6
2018-05-08T04:34:10.262Z,12.4
2018-05-08T04:35:11.927Z,12.7
2018-05-08T04:36:13.575Z,13.3
2018-05-08T04:37:15.227Z,23.1
2018-05-08T04:38:16.887Z,20.1
2018-05-08T04:39:18.556Z,24.1
2018-05-08T04:40:20.214Z,21.3
2018-05-08T04:41:21.855Z,22.7
2018-05-08T04:42:23.519Z,21.0
2018-05-08T04:43:25.172Z,19.7
2018-05-08T04:44:26.825Z,23.3
2018-05-08T04:45:28.485Z,22.7
2018-05-08T04:46:30.147Z,27.9
2018-05-08T04:47:31.806Z,35.5
2018-05-08T04:48:33.459Z,42.9
2018-05-08T04:49:35.115Z,46.2
2018-05-08T04:50:36.774Z,43.0
2018-05-08T04:51:38.433Z,40.0
2018-05-08T04:52:40.086Z,32.8
2018-05-08T04:53:41.738Z,29.3
2018-05-08T04:54:43.389Z,24.6
2018-05-08T04:55:45.808Z,22.4
2018-05-08T04:56:47.443Z,16.0
2018-05-08T04:57:49.097Z,14.3
2018-05-08T04:58:50.758Z,18.0
2018-05-08T04:59:52.415Z,17.5
2018-05-08T05:00:54.064Z,16.8
2018-05-08T05:01:55.725Z,12.6
2018-05-08T05:02:57.486Z,16.0
2018-05-08T05:03:59.151Z,12.0
2018-05-08T05:05:00.812Z,13.5
2018-05-08T05:06:02.468Z,12.1
2018-05-08T05:07:04.172Z,9.7
2018-05-08T05:08:05.801Z,9.8
2018-05-08T05:09:07.463Z,11.7
2018-05-08T05:10:09.119Z,10.3
2018-05-08T05:11:10.794Z,11.8
2018-05-08T05:12:12.907Z,14.4
2018-05-08T05:13:14.867Z,9.0
2018-05-08T05:14:16.722Z,10.3
2018-05-08T05:15:18.387Z,10.9
2018-05-08T05:16:22.438Z,13.6
2018-05-08T05:17:25.352Z,13.0
2018-05-08T05:18:26.960Z,9.7
2018-05-08T05:19:28.620Z,11.6
2018-05-08T05:20:30.286Z,9.7
2018-05-08T05:21:31.943Z,11.2
2018-05-08T05:22:33.603Z,12.0
2018-05-08T05:23:35.265Z,10.2
2018-05-08T05:24:36.936Z,14.7
2018-05-08T05:25:38.587Z,8.4
2018-05-08T05:26:40.347Z,12.9
2018-05-08T05:27:42.008Z,10.2
2018-05-08T05:28:43.667Z,12.5
2018-05-08T05:29:45.321Z,12.1
2018-05-08T05:30:46.996Z,12.4
2018-05-08T05:31:48.669Z,8.8
2018-05-08T05:32:50.455Z,11.6
2018-05-08T05:33:52.123Z,12.2
2018-05-08T05:34:53.792Z,11.5
2018-05-08T05:35:55.452Z,11.9
2018-05-08T05:36:57.124Z,14.2
2018-05-08T05:37:58.789Z,11.6
2018-05-08T05:39:00.453Z,11.4
2018-05-08T05:40:02.117Z,10.0
2018-05-08T05:41:03.783Z,11.1
2018-05-08T05:42:05.454Z,11.2
2018-05-08T05:43:07.135Z,13.6
2018-05-08T05:44:08.792Z,9.4
2018-05-08T05:45:10.464Z,11.5
2018-05-08T05:46:12.129Z,11.2
2018-05-08T05:47:13.795Z,8.1
2018-05-08T05:48:15.477Z,10.1
2018-05-08T05:49:17.146Z,8.9
2018-05-08T05:50:18.819Z,9.8
2018-05-08T05:51:20.490Z,12.7
2018-05-08T05:52:22.155Z,8.7
2018-05-08T05:53:23.816Z,9.5
2018-05-08T05:54:25.522Z,6.8
2018-05-08T05:55:27.230Z,10.8
2018-05-08T06:01:40.317Z,16.8
2018-05-08T06:02:41.985Z,9.9
2018-05-08T06:04:33.899Z,8.8
2018-05-08T06:05:35.558Z,7.9
2018-05-08T06:07:27.503Z,9.6
2018-05-08T06:08:29.164Z,10.6
2018-05-08T06:09:30.816Z,9.2
2018-05-08T06:10:32.480Z,9.2
2018-05-08T06:11:34.141Z,13.1
2018-05-08T06:12:35.804Z,9.6
2018-05-08T06:13:37.472Z,9.2
2018-05-08T06:14:39.135Z,9.9
2018-05-08T06:15:40.794Z,10.3
2018-05-08T06:16:42.462Z,9.1
2018-05-08T06:17:44.127Z,9.4
2018-05-08T06:18:45.793Z,10.7
2018-05-08T06:19:47.485Z,8.3
2018-05-08T06:20:49.162Z,6.7
2018-05-08T06:21:50.830Z,8.3
2018-05-08T06:22:52.491Z,6.9
2018-05-08T06:23:54.153Z,9.2
2018-05-08T06:24:55.825Z,8.6
2018-05-08T06:25:57.485Z,6.3
2018-05-08T06:26:59.145Z,7.5
2018-05-08T06:28:00.823Z,10.2
2018-05-08T06:29:02.487Z,7.5
2018-05-08T06:30:04.157Z,6.7
2018-05-08T06:31:05.825Z,8.6
2018-05-08T06:32:07.493Z,7.4
2018-05-08T06:33:09.164Z,8.2
2018-05-08T06:34:10.820Z,7.8
2018-05-08T06:35:12.494Z,9.3
2018-05-08T06:36:14.153Z,7.0
2018-05-08T06:37:15.809Z,10.3
2018-05-08T06:38:17.484Z,10.4
2018-05-08T06:39:19.159Z,7.4
2018-05-08T06:40:20.822Z,12.9
2018-05-08T06:41:22.550Z,9.1
2018-05-08T06:42:24.230Z,8.5
2018-05-08T06:43:25.899Z,7.7
2018-05-08T06:44:27.572Z,9.1
2018-05-08T06:45:29.234Z,9.1
2018-05-08T06:46:30.895Z,13.0
2018-05-08T06:47:32.555Z,6.1
2018-05-08T06:48:34.225Z,7.4
2018-05-08T06:49:35.889Z,7.1
2018-05-08T06:50:37.563Z,10.2
2018-05-08T06:51:39.244Z,9.1
2018-05-08T06:52:40.876Z,7.7
2018-05-08T06:53:42.564Z,9.4
2018-05-08T06:54:44.238Z,10.6
2018-05-08T06:55:45.902Z,7.3
2018-05-08T06:56:47.599Z,6.0
2018-05-08T06:57:49.269Z,7.0
2018-05-08T06:58:50.940Z,7.6
2018-05-08T06:59:52.604Z,6.1
2018-05-08T07:00:54.276Z,7.9
2018-05-08T07:01:55.941Z,5.5
2018-05-08T07:02:57.617Z,6.2
2018-05-08T07:03:59.295Z,6.8
2018-05-08T07:05:00.972Z,9.7
2018-05-08T07:06:02.649Z,6.6
2018-05-08T07:07:04.317Z,7.5
2018-05-08T07:08:05.982Z,7.3
2018-05-08T07:09:07.685Z,4.6
2018-05-08T07:10:09.333Z,4.8
2018-05-08T07:11:11.017Z,7.8
2018-05-08T07:12:12.704Z,5.7
2018-05-08T07:13:14.369Z,5.3
2018-05-08T07:14:16.048Z,6.2
2018-05-08T07:15:17.718Z,7.0
2018-05-08T07:16:19.394Z,4.8
2018-05-08T07:17:21.071Z,4.0
2018-05-08T07:18:22.740Z,5.6
2018-05-08T07:19:24.434Z,8.3
2018-05-08T07:20:26.106Z,7.1
2018-05-08T07:21:27.773Z,4.0
2018-05-08T07:22:29.436Z,6.4
2018-05-08T07:23:31.107Z,4.5
2018-05-08T07:24:32.784Z,5.1
2018-05-08T07:25:34.464Z,3.5
2018-05-08T07:26:36.136Z,7.1
2018-05-08T07:27:37.802Z,5.5
2018-05-08T07:28:39.473Z,4.5
2018-05-08T07:29:41.146Z,3.3
2018-05-08T07:30:42.841Z,4.4
2018-05-08T07:31:44.503Z,5.7
2018-05-08T07:32:46.166Z,5.5
2018-05-08T07:33:47.866Z,6.2
2018-05-08T07:34:49.535Z,5.3
2018-05-08T07:35:51.203Z,5.2
2018-05-08T07:36:52.875Z,4.5
2018-05-08T07:37:54.556Z,9.7
2018-05-08T07:38:56.223Z,4.2
2018-05-08T07:39:57.901Z,4.2
2018-05-08T07:40:59.576Z,7.3
2018-05-08T07:42:01.246Z,4.4
2018-05-08T07:43:02.921Z,6.9
2018-05-08T07:44:04.577Z,4.2
2018-05-08T07:45:06.257Z,5.9
2018-05-08T07:46:07.944Z,6.2
2018-05-08T07:47:09.608Z,4.5
2018-05-08T07:48:11.306Z,4.9
2018-05-08T07:49:12.976Z,4.6
2018-05-08T07:50:14.670Z,7.0
2018-05-08T07:51:16.338Z,4.5
2018-05-08T07:52:18.015Z,5.2
2018-05-08T07:53:19.691Z,5.1
2018-05-08T07:54:21.366Z,6.2
2018-05-08T07:55:23.049Z,7.0
2018-05-08T07:56:24.704Z,6.8
2018-05-08T07:57:26.386Z,3.8
2018-05-08T07:58:28.054Z,5.0
2018-05-08T07:59:29.726Z,7.1
2018-05-08T08:00:31.391Z,3.8
2018-05-08T08:01:33.068Z,6.1
2018-05-08T08:02:34.754Z,5.8
2018-05-08T08:03:36.423Z,5.0
2018-05-08T08:04:38.093Z,7.2
2018-05-08T08:05:39.776Z,11.3
2018-05-08T08:06:41.450Z,3.9
2018-05-08T08:07:43.115Z,8.9
2018-05-08T08:08:44.790Z,5.2
2018-05-08T08:09:46.460Z,3.8
2018-05-08T08:10:48.163Z,4.1
2018-05-08T08:11:49.831Z,5.2
2018-05-08T08:12:51.511Z,6.1
2018-05-08T08:13:53.189Z,9.3
2018-05-08T08:14:54.859Z,4.9
2018-05-08T08:15:56.533Z,5.3
2018-05-08T08:16:58.220Z,3.2
2018-05-08T08:17:59.889Z,4.5
2018-05-08T08:19:01.601Z,8.6
2018-05-08T08:20:03.278Z,6.0
2018-05-08T08:21:04.957Z,5.1
2018-05-08T08:22:06.632Z,5.5
2018-05-08T08:23:08.327Z,6.1
2018-05-08T08:24:10.010Z,5.1
2018-05-08T08:25:11.681Z,8.2
2018-05-08T08:26:13.361Z,5.8
2018-05-08T08:27:15.041Z,5.3
2018-05-08T08:28:16.708Z,5.7
2018-05-08T08:29:18.388Z,4.8
2018-05-08T08:30:20.063Z,4.9
2018-05-08T08:31:21.744Z,4.1
2018-05-08T08:32:23.463Z,4.4
2018-05-08T08:33:25.141Z,3.6
2018-05-08T08:34:26.832Z,5.8
2018-05-08T08:35:28.509Z,4.8
2018-05-08T08:36:30.191Z,5.6
2018-05-08T08:37:31.864Z,5.6
2018-05-08T08:38:33.537Z,5.5
2018-05-08T08:39:35.224Z,6.3
2018-05-08T08:40:36.913Z,6.7
2018-05-08T08:41:38.588Z,20.3
2018-05-08T08:42:40.265Z,4.6
2018-05-08T08:43:41.949Z,4.8
2018-05-08T08:44:43.627Z,7.1
2018-05-08T08:45:45.305Z,3.9
2018-05-08T08:46:46.982Z,4.6
2018-05-08T08:47:48.664Z,5.6
2018-05-08T08:48:50.353Z,6.0
2018-05-08T08:49:52.036Z,4.5
2018-05-08T08:50:53.723Z,5.9
2018-05-08T08:51:55.396Z,4.6
2018-05-08T08:52:57.074Z,7.5
2018-05-08T08:53:58.761Z,4.3
2018-05-08T08:55:00.428Z,3.5
2018-05-08T08:56:02.135Z,5.0
2018-05-08T08:57:03.789Z,5.0
2018-05-08T08:58:05.464Z,5.4
2018-05-08T08:59:07.149Z,4.6
2018-05-08T09:00:08.824Z,5.2
2018-05-08T09:01:10.548Z,4.1
2018-05-08T09:02:12.233Z,4.6
2018-05-08T09:03:13.911Z,4.4
2018-05-08T09:04:15.586Z,4.0
2018-05-08T09:05:17.274Z,4.1
2018-05-08T09:06:18.961Z,5.6
2018-05-08T09:07:20.639Z,5.9
2018-05-08T09:08:22.310Z,3.7
2018-05-08T09:09:24.001Z,3.7
2018-05-08T09:10:25.667Z,3.0
2018-05-08T09:11:27.342Z,5.1
2018-05-08T09:12:29.015Z,6.5
2018-05-08T09:13:30.708Z,8.1
2018-05-08T09:14:32.471Z,4.2
2018-05-08T09:15:34.023Z,4.8
2018-05-08T09:16:35.696Z,4.8
2018-05-08T09:17:37.371Z,5.0
2018-05-08T09:18:39.041Z,3.8
2018-05-08T09:19:40.772Z,7.8
2018-05-08T09:20:42.410Z,6.3
2018-05-08T09:21:44.138Z,4.0
2018-05-08T09:22:45.825Z,6.2
2018-05-08T09:23:47.517Z,2.4
2018-05-08T09:24:49.200Z,3.5
2018-05-08T09:25:50.913Z,3.9
2018-05-08T09:26:52.604Z,4.8
2018-05-08T09:27:54.297Z,7.9
2018-05-08T09:28:55.980Z,4.0
2018-05-08T09:29:57.657Z,4.5
2018-05-08T09:30:59.344Z,4.4
2018-05-08T09:32:01.013Z,6.3
2018-05-08T09:33:02.693Z,6.5
2018-05-08T09:34:04.368Z,3.8
2018-05-08T09:35:06.118Z,4.6
2018-05-08T09:36:07.682Z,4.6
2018-05-08T09:37:09.363Z,3.6
2018-05-08T09:38:11.043Z,8.9
2018-05-08T09:39:12.723Z,4.2
2018-05-08T09:40:14.407Z,3.8
2018-05-08T09:41:16.068Z,5.1
2018-05-08T09:42:17.751Z,6.2
2018-05-08T09:43:19.433Z,3.2
2018-05-08T09:44:21.108Z,4.6
2018-05-08T09:45:22.796Z,6.4
2018-05-08T09:46:24.481Z,8.0
2018-05-08T09:47:26.156Z,6.6
2018-05-08T09:48:27.841Z,4.7
2018-05-08T09:49:29.521Z,5.8
2018-05-08T09:50:31.203Z,4.7
2018-05-08T09:51:32.884Z,3.9
2018-05-08T09:52:34.561Z,4.3
2018-05-08T09:53:36.233Z,5.3
2018-05-08T09:54:37.905Z,7.2
2018-05-08T10:01:11.060Z,2.3
2018-05-08T10:02:12.728Z,5.0
2018-05-08T10:03:14.390Z,3.9
2018-05-08T10:04:16.084Z,4.7
2018-05-08T10:05:17.753Z,4.0
2018-05-08T10:06:19.435Z,4.7
2018-05-08T10:07:21.109Z,4.0
2018-05-08T10:08:22.798Z,5.1
2018-05-08T10:09:24.474Z,5.5
2018-05-08T10:10:26.135Z,5.4
2018-05-08T10:11:27.812Z,4.3
2018-05-08T10:12:29.487Z,5.2
2018-05-08T10:13:31.168Z,5.4
2018-05-08T10:14:32.844Z,6.3
2018-05-08T10:15:34.520Z,5.1
2018-05-08T10:16:36.200Z,6.3
2018-05-08T10:17:37.881Z,3.8
2018-05-08T10:18:39.565Z,4.3
2018-05-08T10:19:41.247Z,4.3
2018-05-08T10:20:42.950Z,4.6
2018-05-08T10:21:44.552Z,5.1
2018-05-08T10:22:46.237Z,6.0
2018-05-08T10:23:47.930Z,5.3
2018-05-08T10:24:49.607Z,4.0
2018-05-08T10:25:51.286Z,6.3
2018-05-08T10:26:53.022Z,4.6
2018-05-08T10:27:54.645Z,5.2
2018-05-08T10:28:56.330Z,5.5
2018-05-08T10:29:58.006Z,6.3
2018-05-08T10:30:59.685Z,5.1
2018-05-08T10:32:01.364Z,3.7
2018-05-08T10:33:03.089Z,3.1
2018-05-08T10:34:04.720Z,4.5
2018-05-08T10:35:06.399Z,5.1
2018-05-08T10:36:08.063Z,4.9
2018-05-08T10:37:09.752Z,4.3
2018-05-08T10:38:11.444Z,5.1
2018-05-08T10:39:13.120Z,5.3
2018-05-08T10:40:14.798Z,5.8
2018-05-08T10:41:16.489Z,4.3
2018-05-08T10:42:18.155Z,6.3
2018-05-08T10:43:19.858Z,4.8
2018-05-08T10:44:21.577Z,3.8
2018-05-08T10:45:23.248Z,3.2
2018-05-08T10:46:24.931Z,5.0
2018-05-08T10:47:26.603Z,2.7
2018-05-08T10:48:28.317Z,4.1
2018-05-08T10:49:30.000Z,3.6
2018-05-08T10:50:31.685Z,4.4
2018-05-08T10:51:33.364Z,6.4
2018-05-08T10:52:35.042Z,3.0
2018-05-08T10:53:36.730Z,3.7
2018-05-08T10:54:38.403Z,5.0
2018-05-08T10:55:40.166Z,4.1
2018-05-08T10:56:41.716Z,7.8
2018-05-08T10:57:43.412Z,5.8
2018-05-08T10:58:45.062Z,2.9
2018-05-08T10:59:46.748Z,7.2
2018-05-08T11:00:48.427Z,9.1
2018-05-08T11:01:50.170Z,3.1
2018-05-08T11:02:51.754Z,4.3
2018-05-08T11:03:53.438Z,3.4
2018-05-08T11:04:55.125Z,3.0
2018-05-08T11:05:56.855Z,4.0
2018-05-08T11:06:58.534Z,4.5
2018-05-08T11:08:00.208Z,3.0
2018-05-08T11:09:01.884Z,4.4
2018-05-08T11:10:03.568Z,5.3
2018-05-08T11:11:05.246Z,3.6
2018-05-08T11:12:06.919Z,3.2
2018-05-08T11:13:08.596Z,3.3
2018-05-08T11:14:10.276Z,3.2
2018-05-08T11:15:11.953Z,2.8
2018-05-08T11:16:13.634Z,5.4
2018-05-08T11:17:15.321Z,3.3
2018-05-08T11:18:17.037Z,3.9
2018-05-08T11:19:18.688Z,3.7
2018-05-08T11:20:20.438Z,4.3
2018-05-08T11:21:22.115Z,4.9
2018-05-08T11:22:23.792Z,7.0
2018-05-08T11:23:25.474Z,3.9
2018-05-08T11:24:27.150Z,4.6
2018-05-08T11:25:28.848Z,3.4
2018-05-08T11:26:30.603Z,3.3
2018-05-08T11:27:32.161Z,2.9
2018-05-08T11:28:33.869Z,8.8
2018-05-08T11:29:35.560Z,3.9
2018-05-08T11:30:37.253Z,2.7
2018-05-08T11:31:38.938Z,2.9
2018-05-08T11:32:40.624Z,4.0
2018-05-08T11:33:42.319Z,4.3
2018-05-08T11:34:43.989Z,5.6
2018-05-08T11:35:45.675Z,4.9
2018-05-08T11:36:47.378Z,3.8
2018-05-08T11:37:49.055Z,3.9
2018-05-08T11:38:50.754Z,3.4
2018-05-08T11:39:52.443Z,3.6
2018-05-08T11:40:54.100Z,3.0
2018-05-08T11:41:55.789Z,4.2
2018-05-08T11:42:57.471Z,3.8
2018-05-08T11:43:59.156Z,3.8
2018-05-08T11:45:00.833Z,6.4
2018-05-08T11:46:02.510Z,3.5
2018-05-08T11:47:04.185Z,7.3
2018-05-08T11:48:05.860Z,3.6
2018-05-08T11:49:07.551Z,3.2
2018-05-08T11:50:09.327Z,3.6
2018-05-08T11:51:10.876Z,3.5
2018-05-08T11:52:12.562Z,2.9
2018-05-08T11:53:14.253Z,2.4
2018-05-08T11:54:15.937Z,4.4
2018-05-08T11:55:17.623Z,3.7
2018-05-08T11:56:19.291Z,3.4
2018-05-08T11:57:20.987Z,2.0
2018-05-08T11:58:22.653Z,7.9
2018-05-08T11:59:24.331Z,3.1
2018-05-08T12:00:26.233Z,5.6
2018-05-08T12:01:27.912Z,6.6
2018-05-08T12:02:29.604Z,3.7
2018-05-08T12:03:31.270Z,2.9
2018-05-08T12:04:32.950Z,6.0
2018-05-08T12:05:34.750Z,4.4
2018-05-08T12:06:36.421Z,3.2
2018-05-08T12:07:38.092Z,3.9
2018-05-08T12:08:39.778Z,4.9
2018-05-08T12:09:41.450Z,4.3
2018-05-08T12:10:43.125Z,4.9
2018-05-08T12:11:44.796Z,3.5
2018-05-08T12:12:46.483Z,2.5
2018-05-08T12:13:48.186Z,2.3
2018-05-08T12:14:49.942Z,2.8
2018-05-08T12:15:51.597Z,2.1
2018-05-08T12:16:53.319Z,2.8
2018-05-08T12:17:55.001Z,2.5
2018-05-08T12:18:56.669Z,3.2
2018-05-08T12:19:58.344Z,3.6
2018-05-08T12:21:00.025Z,5.7
2018-05-08T12:22:01.782Z,3.2
2018-05-08T12:23:03.461Z,6.1
2018-05-08T12:24:05.155Z,3.2
2018-05-08T12:25:06.829Z,4.0
2018-05-08T12:26:08.719Z,3.2
2018-05-08T12:27:10.415Z,2.8
2018-05-08T12:28:12.093Z,4.5
2018-05-08T12:29:13.782Z,3.0
2018-05-08T12:30:15.461Z,3.8
2018-05-08T12:31:17.139Z,4.7
2018-05-08T12:32:18.811Z,4.2
2018-05-08T12:33:20.489Z,2.9
2018-05-08T12:34:22.166Z,5.2
2018-05-08T12:35:23.839Z,7.4
2018-05-08T12:36:25.520Z,2.9
2018-05-08T12:37:27.188Z,7.2
2018-05-08T12:38:28.863Z,8.2
2018-05-08T12:39:30.595Z,3.7
2018-05-08T12:40:33.453Z,5.9
2018-05-08T12:41:35.150Z,4.4
2018-05-08T12:42:36.830Z,3.0
2018-05-08T12:43:38.501Z,4.4
2018-05-08T12:44:40.282Z,2.7
2018-05-08T12:45:41.949Z,4.0
2018-05-08T12:46:43.628Z,4.9
2018-05-08T12:47:45.308Z,8.8
2018-05-08T12:48:46.985Z,6.3
2018-05-08T12:49:48.680Z,3.3
2018-05-08T12:50:50.362Z,3.8
2018-05-08T12:51:52.037Z,5.5
2018-05-08T12:52:53.725Z,4.6
2018-05-08T12:53:55.417Z,2.2
2018-05-08T12:54:57.096Z,4.6
2018-05-08T12:55:58.781Z,5.0
2018-05-08T12:57:00.451Z,4.3
2018-05-08T12:58:02.131Z,4.7
2018-05-08T12:59:03.906Z,3.7
2018-05-08T13:00:05.565Z,3.5
2018-05-08T13:01:07.247Z,3.3
2018-05-08T13:02:08.930Z,4.7
2018-05-08T13:03:10.609Z,2.6
2018-05-08T13:04:12.308Z,3.3
2018-05-08T13:05:14.049Z,2.4
2018-05-08T13:06:15.641Z,2.5
2018-05-08T13:07:17.326Z,8.3
2018-05-08T13:08:18.994Z,4.7
2018-05-08T13:09:20.673Z,4.3
2018-05-08T13:10:22.359Z,3.8
2018-05-08T13:11:24.038Z,5.2
2018-05-08T13:12:26.086Z,4.4
2018-05-08T13:13:27.772Z,4.5
2018-05-08T13:14:29.446Z,3.8
2018-05-08T13:15:31.411Z,4.1
2018-05-08T13:16:32.950Z,4.6
2018-05-08T13:17:34.631Z,4.7
2018-05-08T13:18:36.322Z,2.7
2018-05-08T13:19:37.989Z,4.6
2018-05-08T13:20:39.751Z,4.9
2018-05-08T13:21:41.356Z,6.9
2018-05-08T13:22:43.052Z,4.9
2018-05-08T13:23:44.812Z,3.4
2018-05-08T13:24:46.403Z,4.3
2018-05-08T13:25:48.076Z,4.3
2018-05-08T13:26:49.774Z,3.5
2018-05-08T13:27:51.468Z,8.3
2018-05-08T13:28:53.140Z,5.7
2018-05-08T13:29:54.823Z,3.2
2018-05-08T13:30:56.504Z,5.3
2018-05-08T13:31:58.186Z,3.4
2018-05-08T13:32:59.865Z,8.1
2018-05-08T13:34:01.543Z,3.7
2018-05-08T13:35:03.223Z,5.7
2018-05-08T13:36:04.899Z,4.2
2018-05-08T13:37:06.584Z,4.3
2018-05-08T13:38:08.268Z,4.5
2018-05-08T13:39:09.944Z,7.0
2018-05-08T13:40:11.622Z,4.7
2018-05-08T13:41:13.301Z,2.8
2018-05-08T13:42:14.984Z,3.4
2018-05-08T13:43:16.663Z,4.0
2018-05-08T13:44:18.340Z,4.1
2018-05-08T13:45:20.023Z,3.8
2018-05-08T13:46:21.713Z,4.8
2018-05-08T13:47:23.392Z,7.2
2018-05-08T13:48:25.114Z,3.1
2018-05-08T13:49:26.788Z,3.8
2018-05-08T13:50:28.467Z,3.8
2018-05-08T13:51:30.150Z,7.0
2018-05-08T13:52:31.826Z,4.6
2018-05-08T13:53:33.519Z,4.5
2018-05-08T13:54:35.199Z,3.8
2018-05-08T13:55:36.883Z,4.4
2018-05-08T14:01:59.648Z,1.7
2018-05-08T14:03:01.319Z,6.8
2018-05-08T14:04:53.201Z,4.9
2018-05-08T14:05:54.879Z,6.3
2018-05-08T14:07:46.785Z,5.2
2018-05-08T14:08:48.458Z,3.1
2018-05-08T14:10:40.364Z,4.1
2018-05-08T14:11:42.031Z,4.0
2018-05-08T14:13:34.003Z,4.2
2018-05-08T14:14:35.683Z,5.4
2018-05-08T14:15:37.363Z,5.1
2018-05-08T14:16:39.042Z,4.3
2018-05-08T14:17:40.721Z,3.2
2018-05-08T14:18:42.398Z,4.0
2018-05-08T14:19:44.071Z,4.8
2018-05-08T14:20:45.795Z,8.7
2018-05-08T14:21:47.500Z,5.1
2018-05-08T14:22:49.290Z,4.5
2018-05-08T14:23:50.972Z,4.2
2018-05-08T14:24:52.676Z,4.7
2018-05-08T14:25:54.389Z,3.8
2018-05-08T14:26:56.062Z,6.7
2018-05-08T14:27:57.735Z,3.2
2018-05-08T14:28:59.412Z,4.2